Flight Track Log - Related Links

Times and Time Zones

All times are in EST time to prevent confusion due to time zone crossing. See the CHQ5281 flight status page for this flight to view local times or setup timezone preferences in your user account.

Time Position Orientation Groundspeed Altitude Reporting Facility
EST Latitude Longitude Course Direction KTS MPH feet Rate Location/Type
03:50PM 41.9056 -91.6272 44° Northeast 201 231 4,100  Level Chicago Center
03:51PM 41.9603 -91.5544 45° Northeast 223 257 6,500 2,468 Climbing Chicago Center
03:52PM 42.0471 -91.4695 37° Northeast  Level FlightAware Approximate
03:52PM 42.0153 -91.4867 42° Northeast 253 291 9,200  Level Chicago Center
03:53PM 42.0897 -91.4137 45° Northeast  Level FlightAware Approximate
03:53PM 42.0708 -91.4153 44° Northeast 275 316 10,600  Level Chicago Center
03:54PM 42.1283 -91.3530 51° Northeast  Level FlightAware Approximate
03:54PM 42.1333 -91.3333 44° Northeast 307 353 12,400  Level Chicago Center
03:55PM 42.1904 -91.2648 44° Northeast  Level FlightAware Approximate
03:55PM 42.1992 -91.2492 43° Northeast 323 372 14,100  Level Chicago Center
03:56PM 42.2792 -91.1444 44° Northeast 335 386 16,300 1,872 Climbing Chicago Center
03:57PM 42.3467 -91.0567 44° Northeast 339 390 18,000 1,210 Climbing Chicago Center
03:58PM 42.4183 -90.9628 44° Northeast 353 406 18,800 484 Climbing Chicago Center
03:59PM 42.4939 -90.8622 44° Northeast 375 432 19,000 97 Climbing Chicago Center
04:00PM 42.5247 -90.7208 73° East 407 468 19,000  Level Chicago Center
04:01PM 42.5222 -90.5364 91° East 410 472 19,000  Level Chicago Center
04:02PM 42.5206 -90.3839 91° East 409 471 19,000  Level Chicago Center
04:03PM 42.5192 -90.2308 91° East 409 471 19,000  Level Chicago Center
04:04PM 42.5178 -90.0794 91° East 406 467 19,000  Level Chicago Center
04:05PM 42.5169 -89.9008 90° East 403 464 19,000 -48 Level Chicago Center
04:06PM 42.5161 -89.7456 90° East 413 475 18,900 -581 Descending Chicago Center
04:07PM 42.5142 -89.5900 91° East 415 478 17,800 -823 Descending Chicago Center
04:08PM 42.5111 -89.4392 92° East 406 467 17,200 -629 Descending Chicago Center
04:09PM 42.5097 -89.2972 91° East 384 442 16,500 -968 Descending Chicago Center
04:10PM 42.5056 -89.1303 92° East 372 428 15,200 -1,113 Descending Chicago Center
04:11PM 42.5064 -88.9956 89° East 362 417 14,200 -1,016 Descending Chicago Center
04:12PM 42.4897 -88.8778 101° East 331 381 13,100 -1,113 Descending Chicago Center
04:13PM 42.4539 -88.7608 113° Southeast 334 384 11,900 -960 Descending Chicago Center
04:14PM 42.4219 -88.6544 112° Southeast 317 365 11,100 -816 Descending Chicago Center
04:15PM 42.3861 -88.5386 113° Southeast 292 336 10,200 -1,210 Descending Chicago Center
04:16PM 42.3314 -88.4825 143° Southeast 278 320 8,600 -1,597 Descending Chicago Center
04:18PM 42.2567 -88.4614 168° South 264 304 6,900 -1,597 Descending Chicago Center
04:19PM 42.1886 -88.4453 170° South 250 288 5,300 -1,355 Descending Chicago Center
04:20PM 42.1169 -88.4281 170° South 246 283 4,100 -629 Descending Chicago Center
04:21PM 42.0497 -88.4197 175° South 244 281 4,000 -48 Descending Chicago Center
04:22PM 42.0031 -88.3783 147° Southeast 204 235 4,000  Level Chicago Center
04:23PM 42.0011 -88.3064 92° East 193 222 4,000  Level Chicago Center
04:24PM 42.0014 -88.2425 90° East 164 189 4,000  Level Chicago Center
04:25PM 42.0011 -88.1825 90° East 161 185 4,000 -97 Level Chicago Center
04:26PM 42.0011 -88.1197 90° East 168 193 3,800 -545 Descending Chicago Center
04:27PM 42.0000 -88.0667 92° East 161 185 3,000 -914 Descending Chicago TRACON
04:28PM 42.0000 -88.0167 90° East 165 190 2,200 -835 Descending Chicago TRACON
04:29PM 42.0000 -87.9667 90° East 126 145 1,400 -800 Descending Chicago TRACON

Login

Don't have an account? Register now (free) for customized features, flight alerts, and more!